Time;durP1;ratioP1;P1;durP2;ratioP2;P2;SDS_P1;SDS_P2;PMS_P1;PMS_P2;Temp;Humidity;BMP_temperature;BMP_pressure;BME280_temperature;BME280_humidity;BME280_pressure;Samples;Min_cycle;Max_cycle;Signal;HPM_P1;HPM_P2
2023/04/20 00:00:20;;;;;;;;;;;;;;;12.39;89.14;99323.63;4990606;28;19921;-92
2023/04/20 00:02:46;;;;;;;;;;;;;;;12.40;88.65;99326.25;4973859;28;19960;-90
2023/04/20 00:05:11;;;;;;;;;;;;;;;12.34;88.79;99322.00;4992768;28;19910;-92
2023/04/20 00:07:40;;;;;;;;;;;;;;;12.28;88.51;99321.28;4992157;28;20001;-93
2023/04/20 00:10:06;;;;;;;;;;;;;;;12.25;88.90;99321.38;4992300;28;19918;-93
2023/04/20 00:12:32;;;;;;;;;;;;;;;12.25;88.74;99318.75;4991008;28;19914;-92
2023/04/20 00:14:57;;;;;;;;;;;;;;;12.23;88.95;99315.28;4992385;28;20025;-93
2023/04/20 00:17:22;;;;;;;;;;;;;;;12.15;88.45;99318.13;4974138;28;19918;-92
2023/04/20 00:19:48;;;;;;;;;;;;;;;12.15;88.42;99315.50;4974313;28;20324;-90
2023/04/20 00:22:13;;;;;;;;;;;;;;;12.06;88.51;99313.09;4991214;28;20538;-90
2023/04/20 00:24:38;;;;;;;;;;;;;;;12.08;86.95;99314.81;4991336;28;19972;-89
2023/04/20 00:27:04;;;;;;;;;;;;;;;12.07;86.07;99307.78;4992279;28;19918;-90
2023/04/20 00:29:29;;;;;;;;;;;;;;;11.95;85.08;99310.75;4991428;28;19922;-90
2023/04/20 00:31:54;;;;;;;;;;;;;;;11.80;85.02;99307.56;4991324;28;19914;-90
2023/04/20 00:34:20;;;;;;;;;;;;;;;11.62;85.98;99306.25;4991125;28;19920;-90
2023/04/20 00:36:45;;;;;;;;;;;;;;;11.52;86.26;99304.75;4991211;28;20004;-90
2023/04/20 00:39:10;;;;;;;;;;;;;;;11.61;86.27;99304.53;4994974;28;20009;-90
2023/04/20 00:41:36;;;;;;;;;;;;;;;11.72;85.85;99311.31;4994120;28;19925;-89
2023/04/20 00:44:01;;;;;;;;;;;;;;;11.76;85.43;99307.69;4995601;28;19920;-90
2023/04/20 00:46:27;;;;;;;;;;;;;;;11.60;85.01;99307.19;4981786;28;19910;-90
2023/04/20 00:48:52;;;;;;;;;;;;;;;11.50;85.67;99311.00;4975720;28;19918;-89
2023/04/20 00:57:25;;;;;;;;;;;;;;;11.38;85.06;99310.38;4991177;28;20011;-89
2023/04/20 00:59:50;;;;;;;;;;;;;;;11.38;84.97;99317.44;4996277;28;20300;-93
2023/04/20 01:02:17;;;;;;;;;;;;;;;11.41;85.46;99312.09;4977888;28;19914;-93
2023/04/20 01:04:44;;;;;;;;;;;;;;;11.42;84.92;99314.69;4995401;28;20386;-91
2023/04/20 01:07:09;;;;;;;;;;;;;;;11.49;84.32;99314.53;4995974;28;19920;-92
2023/04/20 01:09:38;;;;;;;;;;;;;;;11.27;84.57;99309.78;4997838;28;20008;-96
2023/04/20 01:12:04;;;;;;;;;;;;;;;11.32;84.51;99310.53;5013275;28;19957;-94
2023/04/20 01:14:32;;;;;;;;;;;;;;;11.38;83.91;99304.22;4978097;28;19961;-93
2023/04/20 01:16:58;;;;;;;;;;;;;;;11.19;84.61;99299.41;4980832;28;19940;-95
2023/04/20 01:19:25;;;;;;;;;;;;;;;11.21;84.69;99300.22;4964022;28;20433;-94
2023/04/20 01:21:50;;;;;;;;;;;;;;;11.17;85.09;99301.22;4979027;28;19975;-92
2023/04/20 01:24:16;;;;;;;;;;;;;;;11.24;85.10;99297.50;4978544;28;19914;-91
2023/04/20 01:26:41;;;;;;;;;;;;;;;11.25;85.35;99299.25;4994794;28;19917;-92
2023/04/20 01:29:07;;;;;;;;;;;;;;;11.12;86.18;99295.16;4995038;28;20426;-93
2023/04/20 01:31:33;;;;;;;;;;;;;;;11.20;87.04;99300.25;4961347;28;19925;-92
2023/04/20 01:33:58;;;;;;;;;;;;;;;11.38;87.68;99291.88;4994913;28;19914;-92
2023/04/20 01:36:24;;;;;;;;;;;;;;;11.40;88.10;99300.66;4994825;28;19922;-91
2023/04/20 01:38:49;;;;;;;;;;;;;;;11.27;89.20;99292.16;4995417;28;20299;-94
2023/04/20 01:41:15;;;;;;;;;;;;;;;11.20;90.46;99294.97;5010326;28;19913;-94
2023/04/20 01:43:41;;;;;;;;;;;;;;;11.26;90.63;99290.44;4977347;28;19968;-93
2023/04/20 01:46:06;;;;;;;;;;;;;;;11.37;89.99;99292.81;5010078;28;20431;-93
2023/04/20 01:48:32;;;;;;;;;;;;;;;11.34;89.68;99290.25;4993536;28;19914;-93
2023/04/20 01:50:58;;;;;;;;;;;;;;;11.26;89.88;99279.88;4976224;28;19918;-92
2023/04/20 01:53:24;;;;;;;;;;;;;;;11.17;90.04;99288.00;4993032;28;19913;-93
2023/04/20 01:55:50;;;;;;;;;;;;;;;11.12;90.61;99284.59;4994924;28;19913;-93
2023/04/20 01:58:15;;;;;;;;;;;;;;;11.00;91.54;99279.59;4976931;28;20359;-93
2023/04/20 02:00:40;;;;;;;;;;;;;;;10.90;92.77;99281.59;4976638;28;20490;-93
2023/04/20 02:03:06;;;;;;;;;;;;;;;10.96;92.48;99280.59;4994113;28;20415;-94
2023/04/20 02:05:31;;;;;;;;;;;;;;;10.91;92.64;99272.78;4976748;28;20393;-94
2023/04/20 02:07:56;;;;;;;;;;;;;;;10.98;92.26;99279.66;4976741;28;19924;-93
2023/04/20 02:10:22;;;;;;;;;;;;;;;10.93;92.24;99284.16;4994515;28;19920;-95
2023/04/20 02:12:48;;;;;;;;;;;;;;;11.06;91.07;99282.09;4976418;28;20391;-93
2023/04/20 02:15:13;;;;;;;;;;;;;;;11.18;91.18;99279.16;4994598;28;19917;-92
2023/04/20 02:17:40;;;;;;;;;;;;;;;11.17;89.94;99281.84;4990655;28;20460;-94
2023/04/20 02:20:07;;;;;;;;;;;;;;;11.29;89.46;99282.44;4976471;28;19922;-94
2023/04/20 02:22:33;;;;;;;;;;;;;;;10.97;89.99;99280.56;4975758;28;20320;-91
2023/04/20 02:25:00;;;;;;;;;;;;;;;10.87;90.00;99285.16;4976427;28;19913;-90
2023/04/20 02:27:26;;;;;;;;;;;;;;;10.93;90.45;99277.09;4992609;28;19944;-90
2023/04/20 02:29:51;;;;;;;;;;;;;;;11.06;89.82;99276.81;4992776;28;20016;-91
2023/04/20 02:32:16;;;;;;;;;;;;;;;10.99;89.92;99281.38;4993844;28;19909;-88
2023/04/20 02:34:42;;;;;;;;;;;;;;;10.87;90.29;99279.88;4993598;28;20028;-92
2023/04/20 02:37:07;;;;;;;;;;;;;;;10.88;90.36;99288.69;4976676;28;20399;-91
2023/04/20 02:39:32;;;;;;;;;;;;;;;10.89;90.44;99282.50;4998744;28;19963;-91
2023/04/20 02:41:58;;;;;;;;;;;;;;;10.87;88.86;99292.22;4998526;28;20295;-93
2023/04/20 02:44:23;;;;;;;;;;;;;;;10.78;88.95;99290.66;4993416;28;19925;-91
2023/04/20 02:46:48;;;;;;;;;;;;;;;10.85;89.03;99292.25;4976103;28;19914;-92
2023/04/20 02:49:14;;;;;;;;;;;;;;;11.03;88.30;99285.69;4975935;28;19920;-91
2023/04/20 02:51:39;;;;;;;;;;;;;;;11.19;87.01;99288.84;4993179;28;19935;-93
2023/04/20 02:54:05;;;;;;;;;;;;;;;11.06;86.22;99284.75;4986172;28;20470;-92
2023/04/20 02:56:30;;;;;;;;;;;;;;;11.19;86.09;99286.19;4975728;28;19918;-92
2023/04/20 02:58:56;;;;;;;;;;;;;;;11.19;85.10;99293.25;4993545;28;20303;-93
2023/04/20 03:01:21;;;;;;;;;;;;;;;11.21;84.19;99289.66;4992005;28;20326;-94
2023/04/20 03:03:46;;;;;;;;;;;;;;;11.32;83.21;99293.81;4992213;28;19960;-93
2023/04/20 03:06:12;;;;;;;;;;;;;;;11.22;83.44;99295.81;4992383;28;20371;-95
2023/04/20 03:08:38;;;;;;;;;;;;;;;11.42;82.87;99292.69;4992238;28;19924;-92
2023/04/20 03:11:03;;;;;;;;;;;;;;;11.40;82.30;99291.84;4988564;28;19924;-94
2023/04/20 03:13:29;;;;;;;;;;;;;;;11.27;82.20;99297.44;4992784;28;19980;-92
2023/04/20 03:15:55;;;;;;;;;;;;;;;11.10;83.39;99291.69;4992477;28;19922;-93
2023/04/20 03:18:20;;;;;;;;;;;;;;;11.11;82.43;99290.81;4991591;28;20071;-94
2023/04/20 03:20:46;;;;;;;;;;;;;;;11.07;81.54;99291.75;4974466;28;20001;-92
2023/04/20 03:23:12;;;;;;;;;;;;;;;11.05;81.26;99301.50;4975246;28;19918;-93
2023/04/20 03:25:38;;;;;;;;;;;;;;;11.09;80.86;99293.47;4975439;28;20453;-92
2023/04/20 03:28:03;;;;;;;;;;;;;;;11.20;80.18;99295.88;4992510;28;19913;-92
2023/04/20 03:30:29;;;;;;;;;;;;;;;11.10;80.69;99296.97;4992394;28;19914;-91
2023/04/20 03:32:54;;;;;;;;;;;;;;;11.11;79.36;99289.03;4991792;28;19926;-91
2023/04/20 03:35:20;;;;;;;;;;;;;;;11.05;79.81;99289.16;4989724;28;20012;-92
2023/04/20 03:37:45;;;;;;;;;;;;;;;11.06;79.62;99288.28;4990979;28;19921;-93
2023/04/20 03:40:11;;;;;;;;;;;;;;;11.08;80.02;99288.22;4974965;28;19914;-93
2023/04/20 03:42:36;;;;;;;;;;;;;;;10.96;79.81;99285.88;4992009;28;19987;-93
2023/04/20 03:45:02;;;;;;;;;;;;;;;11.02;79.66;99288.38;4974924;28;19922;-93
2023/04/20 03:47:27;;;;;;;;;;;;;;;11.08;79.22;99291.72;4992428;28;20425;-93
2023/04/20 03:49:52;;;;;;;;;;;;;;;11.00;79.88;99288.41;4970397;28;19918;-93
2023/04/20 03:52:18;;;;;;;;;;;;;;;11.14;79.16;99285.44;4997061;28;19918;-92
2023/04/20 03:54:43;;;;;;;;;;;;;;;11.04;79.43;99291.84;4992001;28;20299;-91
2023/04/20 03:57:08;;;;;;;;;;;;;;;10.92;79.50;99292.97;4985712;28;19922;-93
2023/04/20 03:59:34;;;;;;;;;;;;;;;10.98;79.48;99291.97;4983931;28;19957;-90
2023/04/20 04:01:59;;;;;;;;;;;;;;;11.15;79.23;99295.09;4988827;28;19925;-93
2023/04/20 04:04:24;;;;;;;;;;;;;;;11.25;78.27;99293.97;4990677;28;20342;-93
2023/04/20 04:06:51;;;;;;;;;;;;;;;11.33;77.75;99298.22;4991412;28;19988;-93
2023/04/20 04:09:16;;;;;;;;;;;;;;;11.23;77.95;99295.78;4971206;28;19918;-92
2023/04/20 04:11:42;;;;;;;;;;;;;;;11.20;77.01;99306.44;4989391;28;20316;-92
2023/04/20 04:14:07;;;;;;;;;;;;;;;11.19;77.69;99299.41;4983468;28;19949;-92
2023/04/20 04:16:33;;;;;;;;;;;;;;;11.09;77.41;99303.16;4990708;28;19922;-91
2023/04/20 04:18:58;;;;;;;;;;;;;;;11.26;77.17;99303.63;4989841;28;19918;-89
2023/04/20 04:21:23;;;;;;;;;;;;;;;11.32;76.85;99302.59;4990090;28;19932;-91
2023/04/20 04:23:48;;;;;;;;;;;;;;;11.39;76.18;99304.19;4991266;28;19912;-91
2023/04/20 04:26:14;;;;;;;;;;;;;;;11.47;75.84;99310.16;4987263;28;19917;-87
2023/04/20 04:28:39;;;;;;;;;;;;;;;11.39;76.62;99308.63;4987381;28;19945;-89
2023/04/20 04:31:05;;;;;;;;;;;;;;;11.45;76.04;99309.31;4983529;28;19922;-89
2023/04/20 04:33:33;;;;;;;;;;;;;;;11.64;75.32;99308.88;4988269;28;19914;-90
2023/04/20 04:35:59;;;;;;;;;;;;;;;11.80;74.23;99312.84;4988858;28;19953;-92
2023/04/20 04:38:25;;;;;;;;;;;;;;;11.92;73.98;99313.44;4990504;28;19921;-91
2023/04/20 04:40:52;;;;;;;;;;;;;;;11.92;74.70;99316.97;4997582;28;20434;-92
2023/04/20 04:43:18;;;;;;;;;;;;;;;12.02;74.42;99308.78;4966458;28;19928;-90
2023/04/20 04:45:44;;;;;;;;;;;;;;;12.00;74.95;99314.13;4979661;28;19914;-88
2023/04/20 04:48:10;;;;;;;;;;;;;;;12.23;73.65;99316.13;4959625;28;19913;-91
2023/04/20 04:50:37;;;;;;;;;;;;;;;12.41;73.12;99317.41;4978431;28;19995;-90
2023/04/20 04:53:02;;;;;;;;;;;;;;;12.56;73.53;99315.22;4972597;28;20012;-90
2023/04/20 04:55:27;;;;;;;;;;;;;;;12.71;72.66;99320.06;4981457;28;19921;-92
2023/04/20 04:57:53;;;;;;;;;;;;;;;12.88;72.30;99316.91;4955347;28;19914;-92
2023/04/20 05:00:18;;;;;;;;;;;;;;;12.81;71.85;99320.69;4972738;28;20318;-92
2023/04/20 05:02:44;;;;;;;;;;;;;;;12.76;70.85;99320.81;4984400;28;19926;-90
2023/04/20 05:05:09;;;;;;;;;;;;;;;12.71;72.37;99328.00;4981396;28;19917;-92
2023/04/20 05:07:35;;;;;;;;;;;;;;;12.76;72.57;99318.16;4972730;28;20368;-90
2023/04/20 05:10:01;;;;;;;;;;;;;;;12.88;72.59;99319.56;4972952;28;19933;-89
2023/04/20 05:12:27;;;;;;;;;;;;;;;13.10;71.19;99327.72;4972870;28;20012;-89
2023/04/20 05:14:52;;;;;;;;;;;;;;;12.96;71.63;99314.03;4984218;28;20000;-93
2023/04/20 05:17:17;;;;;;;;;;;;;;;12.95;70.41;99314.97;4986310;28;19917;-88
2023/04/20 05:19:43;;;;;;;;;;;;;;;12.94;71.07;99322.00;4985645;28;19929;-90
2023/04/20 05:22:08;;;;;;;;;;;;;;;13.17;69.68;99309.84;4987077;28;19917;-89
2023/04/20 05:24:33;;;;;;;;;;;;;;;13.24;70.54;99316.69;4989230;28;19922;-90
2023/04/20 05:26:59;;;;;;;;;;;;;;;13.35;69.21;99319.03;4994017;28;19952;-87
2023/04/20 05:29:25;;;;;;;;;;;;;;;13.37;69.26;99318.03;4970387;28;19930;-88
2023/04/20 05:31:50;;;;;;;;;;;;;;;13.43;68.30;99319.63;4982557;28;19922;-88
2023/04/20 05:34:15;;;;;;;;;;;;;;;13.42;67.86;99317.91;4976872;28;19929;-88
2023/04/20 05:36:41;;;;;;;;;;;;;;;13.33;68.79;99300.53;4983069;28;19914;-88
2023/04/20 05:39:06;;;;;;;;;;;;;;;13.55;68.62;99319.25;4977421;28;19949;-88
2023/04/20 05:41:32;;;;;;;;;;;;;;;13.73;68.97;99324.81;4982852;28;19914;-90
2023/04/20 05:43:57;;;;;;;;;;;;;;;13.77;67.80;99318.50;4976762;28;19964;-90
2023/04/20 05:46:22;;;;;;;;;;;;;;;13.74;67.55;99321.28;4982828;28;19910;-93
2023/04/20 05:48:48;;;;;;;;;;;;;;;13.71;66.32;99329.31;4992860;28;19979;-93
2023/04/20 05:51:13;;;;;;;;;;;;;;;13.68;66.12;99329.44;4979697;28;20060;-92
2023/04/20 05:53:39;;;;;;;;;;;;;;;13.64;66.20;99333.09;4994217;28;19913;-93
2023/04/20 05:56:05;;;;;;;;;;;;;;;13.90;66.60;99332.22;4993774;28;20351;-92
2023/04/20 05:58:32;;;;;;;;;;;;;;;13.86;63.77;99333.25;4993781;28;20413;-92
2023/04/20 06:00:57;;;;;;;;;;;;;;;14.02;65.26;99336.22;4976690;28;19953;-94
2023/04/20 06:03:22;;;;;;;;;;;;;;;14.33;66.65;99338.66;4973841;28;19958;-93
2023/04/20 06:05:48;;;;;;;;;;;;;;;14.41;63.00;99339.25;4974232;28;19996;-92
2023/04/20 06:08:13;;;;;;;;;;;;;;;14.18;64.54;99340.09;4974649;28;20009;-92
2023/04/20 06:10:38;;;;;;;;;;;;;;;14.31;63.12;99338.72;4974214;28;19914;-91
2023/04/20 06:13:04;;;;;;;;;;;;;;;14.53;63.66;99332.63;4974071;28;19928;-91
2023/04/20 06:15:29;;;;;;;;;;;;;;;14.62;63.38;99324.34;4973739;28;20008;-92
2023/04/20 06:17:54;;;;;;;;;;;;;;;14.87;61.12;99334.03;4974091;28;20380;-93
2023/04/20 06:20:20;;;;;;;;;;;;;;;14.91;63.47;99325.03;4972724;28;20303;-92
2023/04/20 06:22:45;;;;;;;;;;;;;;;15.03;62.12;99329.03;4974014;28;19920;-91
2023/04/20 06:25:11;;;;;;;;;;;;;;;15.18;62.52;99323.09;4974250;28;19913;-93
2023/04/20 06:27:42;;;;;;;;;;;;;;;15.25;61.95;99325.50;4975806;28;19958;-93
2023/04/20 06:30:08;;;;;;;;;;;;;;;15.22;61.54;99335.31;4973685;28;19914;-91
2023/04/20 06:32:34;;;;;;;;;;;;;;;15.61;60.96;99324.94;4973543;28;19914;-91
2023/04/20 06:35:00;;;;;;;;;;;;;;;15.75;60.21;99336.72;4973967;28;19921;-89
2023/04/20 06:37:26;;;;;;;;;;;;;;;15.50;57.62;99336.84;4974967;28;19982;-91
2023/04/20 06:39:53;;;;;;;;;;;;;;;15.37;60.68;99331.19;4974327;28;19960;-91
2023/04/20 06:42:18;;;;;;;;;;;;;;;15.52;60.08;99328.81;4972274;28;19914;-92
2023/04/20 06:44:44;;;;;;;;;;;;;;;15.31;60.33;99335.91;4973200;28;19921;-93
2023/04/20 06:47:09;;;;;;;;;;;;;;;15.49;59.79;99321.88;4969991;28;19910;-89
2023/04/20 06:49:36;;;;;;;;;;;;;;;15.79;59.44;99336.63;4972862;28;19914;-89
2023/04/20 06:52:01;;;;;;;;;;;;;;;16.11;58.33;99321.91;4973169;28;19913;-90
2023/04/20 06:54:27;;;;;;;;;;;;;;;15.98;57.87;99339.38;4972435;28;19914;-90
2023/04/20 06:56:52;;;;;;;;;;;;;;;15.73;58.35;99327.94;4972456;28;19914;-91
2023/04/20 06:59:18;;;;;;;;;;;;;;;15.78;58.20;99341.06;4987538;28;20414;-89
2023/04/20 07:01:43;;;;;;;;;;;;;;;15.93;58.12;99337.75;4972262;28;19917;-90
2023/04/20 07:04:09;;;;;;;;;;;;;;;15.62;56.35;99334.66;4955052;28;19918;-91
2023/04/20 07:06:34;;;;;;;;;;;;;;;15.89;58.12;99338.81;4972470;28;19964;-90
2023/04/20 07:08:59;;;;;;;;;;;;;;;15.67;56.18;99337.97;4972394;28;19957;-90
2023/04/20 07:11:25;;;;;;;;;;;;;;;15.69;56.36;99338.75;4972576;28;19917;-87
2023/04/20 07:13:50;;;;;;;;;;;;;;;15.74;55.00;99337.66;4972023;28;19933;-89
2023/04/20 07:16:15;;;;;;;;;;;;;;;16.09;53.88;99348.59;4972634;28;19914;-88
2023/04/20 07:18:41;;;;;;;;;;;;;;;16.18;53.21;99338.50;4971807;28;21481;-91
2023/04/20 07:21:06;;;;;;;;;;;;;;;16.56;53.52;99338.56;4954864;28;20335;-90
2023/04/20 07:23:32;;;;;;;;;;;;;;;16.69;52.10;99344.22;4972503;28;19910;-91
2023/04/20 07:25:58;;;;;;;;;;;;;;;16.68;51.01;99335.34;4972840;28;19921;-94
2023/04/20 07:28:23;;;;;;;;;;;;;;;17.09;53.28;99329.09;4970684;28;19910;-91
2023/04/20 07:30:49;;;;;;;;;;;;;;;17.33;53.41;99329.69;4971648;28;20739;-89
2023/04/20 07:33:14;;;;;;;;;;;;;;;17.82;52.85;99331.72;4972332;28;19914;-93
2023/04/20 07:35:39;;;;;;;;;;;;;;;17.96;51.51;99334.59;4972249;28;19913;-90
2023/04/20 07:38:05;;;;;;;;;;;;;;;17.84;50.83;99328.06;4972465;28;19914;-91
2023/04/20 07:40:30;;;;;;;;;;;;;;;17.55;49.80;99337.50;4972729;28;19969;-88
2023/04/20 07:42:55;;;;;;;;;;;;;;;17.31;51.45;99328.91;4972734;28;20254;-87
2023/04/20 07:45:21;;;;;;;;;;;;;;;17.22;51.37;99329.34;4971954;28;19914;-90
2023/04/20 07:47:50;;;;;;;;;;;;;;;17.89;50.61;99331.38;4971832;28;19924;-90
2023/04/20 07:50:15;;;;;;;;;;;;;;;17.84;51.04;99335.19;4972773;28;20402;-90
2023/04/20 07:52:40;;;;;;;;;;;;;;;18.01;51.28;99326.34;4972577;28;20004;-90
2023/04/20 07:55:07;;;;;;;;;;;;;;;18.20;49.95;99324.44;4972298;28;19921;-90
2023/04/20 07:57:33;;;;;;;;;;;;;;;17.99;49.26;99328.22;4971983;28;19968;-88
2023/04/20 07:59:58;;;;;;;;;;;;;;;17.75;49.69;99330.31;4971954;28;19914;-90
2023/04/20 08:02:24;;;;;;;;;;;;;;;17.64;49.42;99334.38;4971994;28;19921;-88
2023/04/20 08:04:49;;;;;;;;;;;;;;;17.82;49.44;99321.06;4972339;28;19972;-88
2023/04/20 08:07:15;;;;;;;;;;;;;;;17.89;51.46;99326.03;4971725;28;20323;-89
2023/04/20 08:09:40;;;;;;;;;;;;;;;17.75;47.98;99330.31;4970961;28;19914;-87
2023/04/20 08:12:06;;;;;;;;;;;;;;;17.80;50.99;99322.94;4972031;28;19936;-89
2023/04/20 08:14:32;;;;;;;;;;;;;;;17.93;48.06;99324.06;4971733;28;19914;-88
2023/04/20 08:16:57;;;;;;;;;;;;;;;17.56;49.69;99323.22;4972036;28;20069;-88
2023/04/20 08:19:23;;;;;;;;;;;;;;;17.92;49.58;99325.03;4971540;28;19965;-89
2023/04/20 08:21:49;;;;;;;;;;;;;;;17.70;50.58;99317.19;4971298;28;19918;-90
2023/04/20 08:24:15;;;;;;;;;;;;;;;17.96;49.29;99318.56;4972858;28;19925;-88
2023/04/20 08:26:42;;;;;;;;;;;;;;;18.10;49.75;99322.34;4973878;28;19965;-89
2023/04/20 08:29:07;;;;;;;;;;;;;;;18.46;47.80;99316.00;4974573;28;19953;-87
2023/04/20 08:31:32;;;;;;;;;;;;;;;18.27;49.55;99313.44;4972015;28;20376;-89
2023/04/20 08:33:58;;;;;;;;;;;;;;;18.15;50.31;99314.94;4971759;28;20444;-90
2023/04/20 08:36:23;;;;;;;;;;;;;;;18.20;49.12;99313.78;4971471;28;20005;-88
2023/04/20 08:39:06;;;;;;;;;;;;;;;18.49;50.37;99318.50;4971552;28;20016;-88
2023/04/20 08:41:31;;;;;;;;;;;;;;;18.37;48.10;99309.38;4971139;28;19914;-86
2023/04/20 08:43:57;;;;;;;;;;;;;;;18.14;47.45;99319.44;4953189;28;19913;-89
2023/04/20 08:46:23;;;;;;;;;;;;;;;18.17;49.15;99305.94;4970297;28;19932;-89
2023/04/20 08:48:49;;;;;;;;;;;;;;;18.37;48.02;99304.03;4969906;28;19945;-88
2023/04/20 08:51:16;;;;;;;;;;;;;;;18.29;48.47;99307.09;4970151;28;20008;-88
2023/04/20 08:53:41;;;;;;;;;;;;;;;18.56;51.16;99294.06;4970231;28;19914;-88
2023/04/20 08:56:07;;;;;;;;;;;;;;;18.70;47.40;99301.31;4952825;28;19965;-89
2023/04/20 08:58:32;;;;;;;;;;;;;;;18.94;47.47;99298.28;4971727;28;19910;-88
2023/04/20 09:00:59;;;;;;;;;;;;;;;19.01;48.26;99294.31;4973036;28;19960;-88
2023/04/20 09:03:35;;;;;;;;;;;;;;;18.92;49.02;99292.16;4979475;28;19925;-88
2023/04/20 09:06:00;;;;;;;;;;;;;;;19.02;46.67;99288.00;4976132;28;19918;-88
2023/04/20 09:08:33;;;;;;;;;;;;;;;19.26;47.64;99287.56;4982679;28;20354;-87
2023/04/20 09:10:58;;;;;;;;;;;;;;;19.04;46.41;99294.13;4985390;28;19909;-87
2023/04/20 09:13:24;;;;;;;;;;;;;;;19.16;49.24;99289.91;4975725;28;19933;-89
2023/04/20 09:15:50;;;;;;;;;;;;;;;19.38;48.00;99294.03;4976536;28;19976;-91
2023/04/20 09:18:16;;;;;;;;;;;;;;;19.04;49.30;99267.41;4939180;28;1203404;-90
2023/04/20 09:20:41;;;;;;;;;;;;;;;19.00;50.07;99286.38;4962502;28;20381;-90
2023/04/20 09:23:11;;;;;;;;;;;;;;;19.11;49.00;99300.88;4963867;28;20062;-89
2023/04/20 09:25:37;;;;;;;;;;;;;;;19.08;50.21;99295.69;4974607;28;19925;-90
2023/04/20 09:28:02;;;;;;;;;;;;;;;18.73;45.35;99292.28;4970586;28;19918;-93
2023/04/20 09:30:37;;;;;;;;;;;;;;;18.49;48.24;99289.13;4959916;28;19970;-93
2023/04/20 09:33:02;;;;;;;;;;;;;;;18.80;46.99;99288.34;4967513;28;19921;-90
2023/04/20 09:35:28;;;;;;;;;;;;;;;18.41;49.17;99276.19;4960584;28;19922;-90
2023/04/20 09:37:53;;;;;;;;;;;;;;;18.55;47.87;99283.44;4973654;28;19940;-92
2023/04/20 09:40:20;;;;;;;;;;;;;;;18.88;51.27;99280.78;4972626;28;19917;-90
2023/04/20 09:42:47;;;;;;;;;;;;;;;19.29;49.72;99282.91;4955148;29;19914;-91
2023/04/20 09:45:13;;;;;;;;;;;;;;;19.33;46.94;99273.75;4953826;28;20300;-89
2023/04/20 09:47:41;;;;;;;;;;;;;;;19.07;46.65;99280.59;4952846;29;19915;-92
2023/04/20 09:50:09;;;;;;;;;;;;;;;19.38;45.96;99277.97;4959740;28;19928;-92
2023/04/20 09:52:35;;;;;;;;;;;;;;;19.63;46.08;99272.94;4969122;28;19925;-92
2023/04/20 09:55:01;;;;;;;;;;;;;;;19.86;45.12;99273.38;4972817;28;20013;-90
2023/04/20 09:57:27;;;;;;;;;;;;;;;19.71;44.56;99271.59;4971617;28;20376;-90
2023/04/20 09:59:53;;;;;;;;;;;;;;;19.38;47.98;99265.47;4972533;28;19918;-92
2023/04/20 10:02:18;;;;;;;;;;;;;;;19.31;46.42;99251.59;4972987;28;20359;-92
2023/04/20 10:05:00;;;;;;;;;;;;;;;19.00;44.32;99249.84;4972829;28;19921;-87
2023/04/20 10:07:26;;;;;;;;;;;;;;;18.64;47.37;99253.56;4973247;28;19914;-94
2023/04/20 10:10:02;;;;;;;;;;;;;;;19.12;47.82;99246.47;4956652;28;19914;-93
2023/04/20 10:12:27;;;;;;;;;;;;;;;19.12;47.73;99237.56;4974022;28;19910;-91
2023/04/20 10:14:56;;;;;;;;;;;;;;;19.64;47.56;99244.34;4956380;28;20310;-92
2023/04/20 10:17:32;;;;;;;;;;;;;;;19.72;47.89;99236.72;4988831;28;19914;-90
2023/04/20 10:19:58;;;;;;;;;;;;;;;19.87;46.20;99237.66;4956396;28;19918;-91
2023/04/20 10:22:32;;;;;;;;;;;;;;;19.45;47.25;99240.09;4974043;28;20391;-91
2023/04/20 10:24:59;;;;;;;;;;;;;;;19.27;47.55;99199.25;4973199;28;19968;-92
2023/04/20 10:27:24;;;;;;;;;;;;;;;19.67;48.81;99233.47;4973655;28;19918;-92
2023/04/20 10:29:50;;;;;;;;;;;;;;;19.96;48.16;99242.44;4972856;28;20315;-92
2023/04/20 10:32:22;;;;;;;;;;;;;;;20.02;47.00;99238.53;4973656;28;19968;-93
2023/04/20 10:34:58;;;;;;;;;;;;;;;19.77;45.70;99233.78;4972910;28;19914;-91
2023/04/20 10:37:24;;;;;;;;;;;;;;;19.51;47.40;99225.50;4973221;28;19988;-90
2023/04/20 10:39:50;;;;;;;;;;;;;;;19.74;46.56;99231.28;4971725;28;20428;-87
2023/04/20 10:42:15;;;;;;;;;;;;;;;19.61;46.29;99234.69;4973559;28;20008;-90
2023/04/20 10:44:50;;;;;;;;;;;;;;;20.23;48.94;99230.13;4972459;28;19914;-91
2023/04/20 10:47:17;;;;;;;;;;;;;;;20.26;48.73;99227.25;4973858;28;20399;-92
2023/04/20 10:49:42;;;;;;;;;;;;;;;20.53;46.09;99225.53;4971090;28;19925;-90
2023/04/20 10:52:08;;;;;;;;;;;;;;;20.72;46.68;99227.91;4972988;28;19917;-89
2023/04/20 10:54:37;;;;;;;;;;;;;;;20.58;48.09;99226.06;4972651;28;20388;-90
2023/04/20 10:57:04;;;;;;;;;;;;;;;20.32;42.60;99218.84;4971840;28;19922;-91
2023/04/20 10:59:29;;;;;;;;;;;;;;;19.94;44.63;99227.41;4973320;28;20345;-88
2023/04/20 11:01:55;;;;;;;;;;;;;;;20.39;45.64;99222.88;4972510;28;19925;-88
2023/04/20 11:04:31;;;;;;;;;;;;;;;20.30;43.07;99228.81;4971172;28;20245;-89
2023/04/20 11:07:03;;;;;;;;;;;;;;;20.18;45.83;99228.59;4972384;28;19961;-89
2023/04/20 11:09:28;;;;;;;;;;;;;;;20.64;47.81;99223.97;4973224;28;19957;-89
2023/04/20 11:12:00;;;;;;;;;;;;;;;20.40;40.27;99221.88;4972245;28;19970;-88
2023/04/20 11:14:26;;;;;;;;;;;;;;;20.27;45.87;99220.97;4970534;28;20016;-89
2023/04/20 11:16:52;;;;;;;;;;;;;;;20.50;46.76;99223.03;4971881;28;20053;-90
2023/04/20 11:19:26;;;;;;;;;;;;;;;20.52;41.27;99222.94;4972474;28;19918;-89
2023/04/20 11:21:52;;;;;;;;;;;;;;;20.41;43.54;99220.09;4971538;28;19914;-91
2023/04/20 11:24:18;;;;;;;;;;;;;;;20.89;42.90;99208.03;4972439;28;19921;-90
2023/04/20 11:26:48;;;;;;;;;;;;;;;20.57;41.51;99208.31;4971639;28;20017;-92
2023/04/20 11:29:25;;;;;;;;;;;;;;;20.55;40.14;99198.63;4972409;28;20004;-90
2023/04/20 11:31:50;;;;;;;;;;;;;;;20.87;43.93;99203.78;4971687;28;20007;-92
2023/04/20 11:34:16;;;;;;;;;;;;;;;20.73;42.52;99199.31;4972216;28;20028;-90
2023/04/20 11:36:42;;;;;;;;;;;;;;;19.73;43.75;99209.03;4971447;28;19914;-90
2023/04/20 11:39:08;;;;;;;;;;;;;;;19.32;44.65;99197.19;4971765;28;19914;-90
2023/04/20 11:41:34;;;;;;;;;;;;;;;19.23;45.11;99196.84;4972167;28;19914;-89
2023/04/20 11:44:00;;;;;;;;;;;;;;;19.54;44.65;99195.00;4970214;28;19920;-88
2023/04/20 11:46:25;;;;;;;;;;;;;;;19.77;46.52;99191.88;4987310;28;20013;-88
2023/04/20 11:48:50;;;;;;;;;;;;;;;19.63;43.52;99194.47;4972377;28;19969;-89
2023/04/20 11:51:16;;;;;;;;;;;;;;;19.65;39.82;99189.91;4972340;28;19914;-88
2023/04/20 11:53:41;;;;;;;;;;;;;;;19.65;40.81;99184.56;4972016;28;19918;-88
2023/04/20 11:56:07;;;;;;;;;;;;;;;20.23;43.67;99180.09;4972176;28;20359;-91
2023/04/20 11:58:32;;;;;;;;;;;;;;;20.31;41.87;99179.63;4972164;28;19917;-86
2023/04/20 12:00:59;;;;;;;;;;;;;;;20.03;39.06;99176.88;4972209;28;19914;-88
2023/04/20 12:03:24;;;;;;;;;;;;;;;20.10;41.61;99177.34;4972134;28;19918;-90
2023/04/20 12:05:50;;;;;;;;;;;;;;;20.17;39.85;99167.97;4972926;28;19964;-93
2023/04/20 12:08:16;;;;;;;;;;;;;;;20.13;39.11;99163.75;4972391;28;19965;-93
2023/04/20 12:10:41;;;;;;;;;;;;;;;19.88;38.67;99166.25;4954347;28;19957;-92
2023/04/20 12:13:06;;;;;;;;;;;;;;;20.13;43.14;99160.25;4970888;28;19968;-90
2023/04/20 12:15:32;;;;;;;;;;;;;;;20.30;39.53;99164.53;4970802;28;20392;-89
2023/04/20 12:17:57;;;;;;;;;;;;;;;20.60;44.87;99163.50;4970695;28;20319;-90
2023/04/20 12:20:22;;;;;;;;;;;;;;;20.38;42.15;99168.41;4971218;28;20009;-90
2023/04/20 12:22:48;;;;;;;;;;;;;;;20.31;42.75;99156.41;4971577;28;20004;-89
2023/04/20 12:25:13;;;;;;;;;;;;;;;20.79;45.68;99155.16;4970903;28;19930;-92
2023/04/20 12:27:38;;;;;;;;;;;;;;;20.51;41.90;99160.47;4971701;28;19966;-89
2023/04/20 12:30:04;;;;;;;;;;;;;;;20.78;41.76;99153.44;4971177;28;19983;-91
2023/04/20 12:32:30;;;;;;;;;;;;;;;20.72;39.89;99152.88;4970703;28;19921;-91
2023/04/20 12:34:55;;;;;;;;;;;;;;;21.03;43.41;99150.00;4970381;28;19936;-90
2023/04/20 12:37:20;;;;;;;;;;;;;;;21.36;39.52;99148.66;4971192;28;19914;-90
2023/04/20 12:39:45;;;;;;;;;;;;;;;21.09;38.53;99141.53;4971226;28;19910;-92
2023/04/20 12:42:11;;;;;;;;;;;;;;;20.84;36.54;99143.16;4970947;28;19976;-88
2023/04/20 12:44:36;;;;;;;;;;;;;;;20.88;38.86;99150.06;4971301;28;19914;-89
2023/04/20 12:47:02;;;;;;;;;;;;;;;20.85;39.53;99133.28;4970610;28;19978;-92